FIN6374 ENGM-EFHK
Flight info
| Callsign | FIN6374 |
|---|---|
| Flight time | 1h 0m |
| Altitude | 37000 |
| Route | MASEV DCT OTKIL Y368 LAKUT |
| Aircraft | A320/M-SDE3FGHIRWY/LB1 |
Departure
| Time | 2026-05-07 18:14 |
|---|---|
| Airport | Oslo-Gardermoen International Airport (ENGM) |
Arrival
| Time | 2026-05-07 19:14 |
|---|---|
| Airport | Helsinki Vantaa Airport (EFHK) |
| Time | Latitude | Longitude | Altitude | Speed | Heading |
|---|---|---|---|---|---|
| 2026-05-07 17:50 | 60.19478 | 11.09346 | 680 ft | 0 kts | 17° |
| 2026-05-07 18:01 | 60.19477 | 11.09345 | 658 ft | 3 kts | 17° |
| 2026-05-07 18:01 | 60.19456 | 11.09333 | 679 ft | 3 kts | 27° |
| 2026-05-07 18:01 | 60.19440 | 11.09306 | 682 ft | 3 kts | 49° |
| 2026-05-07 18:02 | 60.19420 | 11.09273 | 677 ft | 0 kts | 334° |
| 2026-05-07 18:06 | 60.19429 | 11.09254 | 681 ft | 7 kts | 305° |
| 2026-05-07 18:06 | 60.19452 | 11.09168 | 684 ft | 6 kts | 294° |
| 2026-05-07 18:06 | 60.19465 | 11.09097 | 681 ft | 5 kts | 290° |
| 2026-05-07 18:06 | 60.19475 | 11.09042 | 685 ft | 5 kts | 288° |
| 2026-05-07 18:07 | 60.19531 | 11.08909 | 684 ft | 19 kts | 344° |
| 2026-05-07 18:07 | 60.19586 | 11.08927 | 684 ft | 0 kts | 15° |
| 2026-05-07 18:07 | 60.19621 | 11.08948 | 684 ft | 13 kts | 19° |
| 2026-05-07 18:07 | 60.19726 | 11.09019 | 679 ft | 16 kts | 17° |
| 2026-05-07 18:08 | 60.19792 | 11.09135 | 683 ft | 11 kts | 93° |
| 2026-05-07 18:08 | 60.19780 | 11.09269 | 679 ft | 9 kts | 106° |
| 2026-05-07 18:08 | 60.19750 | 11.09469 | 680 ft | 19 kts | 107° |
| 2026-05-07 18:08 | 60.19778 | 11.09658 | 683 ft | 13 kts | 35° |
| 2026-05-07 18:09 | 60.19863 | 11.09717 | 683 ft | 13 kts | 12° |
| 2026-05-07 18:09 | 60.19954 | 11.09762 | 678 ft | 14 kts | 15° |
| 2026-05-07 18:09 | 60.20039 | 11.09817 | 683 ft | 12 kts | 39° |
| 2026-05-07 18:09 | 60.20052 | 11.09957 | 683 ft | 9 kts | 102° |
| 2026-05-07 18:10 | 60.20027 | 11.10152 | 685 ft | 22 kts | 106° |
| 2026-05-07 18:10 | 60.19973 | 11.10524 | 685 ft | 29 kts | 103° |
| 2026-05-07 18:10 | 60.19921 | 11.10893 | 682 ft | 21 kts | 107° |
| 2026-05-07 18:10 | 60.19878 | 11.11183 | 683 ft | 22 kts | 106° |
| 2026-05-07 18:11 | 60.19844 | 11.11424 | 683 ft | 16 kts | 99° |
| 2026-05-07 18:11 | 60.19874 | 11.11538 | 685 ft | 14 kts | 33° |
| 2026-05-07 18:11 | 60.19996 | 11.11621 | 682 ft | 14 kts | 17° |
| 2026-05-07 18:11 | 60.20087 | 11.11674 | 687 ft | 14 kts | 16° |
| 2026-05-07 18:12 | 60.20167 | 11.11758 | 685 ft | 13 kts | 60° |
| 2026-05-07 18:12 | 60.20157 | 11.11941 | 686 ft | 13 kts | 108° |
| 2026-05-07 18:12 | 60.20136 | 11.12079 | 686 ft | 8 kts | 107° |
| 2026-05-07 18:12 | 60.20112 | 11.12188 | 690 ft | 14 kts | 129° |
| 2026-05-07 18:13 | 60.20004 | 11.12184 | 686 ft | 19 kts | 193° |
| 2026-05-07 18:13 | 60.19695 | 11.12005 | 685 ft | 81 kts | 197° |
| 2026-05-07 18:13 | 60.18945 | 11.11576 | 684 ft | 140 kts | 196° |
| 2026-05-07 18:13 | 60.17869 | 11.10955 | 879 ft | 168 kts | 195° |
| 2026-05-07 18:14 | 60.16702 | 11.10285 | 1462 ft | 176 kts | 195° |
| 2026-05-07 18:14 | 60.15928 | 11.09841 | 1975 ft | 176 kts | 195° |
| 2026-05-07 18:14 | 60.14693 | 11.09138 | 2397 ft | 195 kts | 193° |
| 2026-05-07 18:14 | 60.13272 | 11.09227 | 2693 ft | 219 kts | 160° |
| 2026-05-07 18:15 | 60.11970 | 11.11063 | 3086 ft | 243 kts | 134° |
| 2026-05-07 18:15 | 60.10369 | 11.14453 | 4002 ft | 258 kts | 133° |
| 2026-05-07 18:15 | 60.09137 | 11.17105 | 4884 ft | 262 kts | 133° |
| 2026-05-07 18:15 | 60.07976 | 11.19956 | 5727 ft | 267 kts | 118° |
| 2026-05-07 18:16 | 60.07533 | 11.22321 | 6280 ft | 271 kts | 101° |
| 2026-05-07 18:16 | 60.07516 | 11.26045 | 7049 ft | 275 kts | 80° |
| 2026-05-07 18:16 | 60.07842 | 11.29852 | 7862 ft | 279 kts | 79° |
| 2026-05-07 18:16 | 60.08178 | 11.33716 | 8653 ft | 284 kts | 79° |
| 2026-05-07 18:17 | 60.08520 | 11.37655 | 9436 ft | 290 kts | 79° |
| 2026-05-07 18:17 | 60.08865 | 11.41666 | 10186 ft | 295 kts | 79° |
| 2026-05-07 18:17 | 60.09223 | 11.45860 | 10494 ft | 317 kts | 79° |
| 2026-05-07 18:17 | 60.09605 | 11.50372 | 10710 ft | 340 kts | 80° |
| 2026-05-07 18:18 | 60.10008 | 11.55204 | 10874 ft | 363 kts | 80° |
| 2026-05-07 18:18 | 60.10428 | 11.60282 | 11307 ft | 374 kts | 80° |
| 2026-05-07 18:18 | 60.10847 | 11.65399 | 11928 ft | 380 kts | 80° |
| 2026-05-07 18:18 | 60.11274 | 11.70650 | 12573 ft | 384 kts | 80° |
| 2026-05-07 18:19 | 60.11708 | 11.75979 | 13207 ft | 389 kts | 80° |
| 2026-05-07 18:19 | 60.12148 | 11.81367 | 13843 ft | 394 kts | 80° |
| 2026-05-07 18:19 | 60.12591 | 11.86830 | 14403 ft | 399 kts | 80° |
| 2026-05-07 18:19 | 60.13179 | 11.94168 | 15125 ft | 405 kts | 80° |
| 2026-05-07 18:20 | 60.13480 | 11.97957 | 15494 ft | 409 kts | 80° |
| 2026-05-07 18:20 | 60.13929 | 12.03612 | 16022 ft | 413 kts | 80° |
| 2026-05-07 18:20 | 60.14383 | 12.09345 | 16558 ft | 418 kts | 80° |
| 2026-05-07 18:20 | 60.14842 | 12.15144 | 17098 ft | 423 kts | 79° |
| 2026-05-07 18:21 | 60.15303 | 12.21000 | 17627 ft | 427 kts | 79° |
| 2026-05-07 18:21 | 60.15765 | 12.26927 | 18160 ft | 432 kts | 80° |
| 2026-05-07 18:21 | 60.16229 | 12.32931 | 18628 ft | 437 kts | 80° |
| 2026-05-07 18:21 | 60.16687 | 12.38909 | 19080 ft | 441 kts | 80° |
| 2026-05-07 18:22 | 60.17150 | 12.45016 | 19564 ft | 445 kts | 79° |
| 2026-05-07 18:22 | 60.17458 | 12.49109 | 19828 ft | 448 kts | 79° |
| 2026-05-07 18:22 | 60.18069 | 12.57456 | 20399 ft | 454 kts | 80° |
| 2026-05-07 18:22 | 60.18502 | 12.63759 | 20822 ft | 458 kts | 81° |
| 2026-05-07 18:23 | 60.18921 | 12.70115 | 21244 ft | 461 kts | 81° |
| 2026-05-07 18:23 | 60.19333 | 12.76529 | 21652 ft | 465 kts | 81° |
| 2026-05-07 18:23 | 60.19745 | 12.82996 | 22050 ft | 468 kts | 81° |
| 2026-05-07 18:23 | 60.20154 | 12.89412 | 22426 ft | 471 kts | 81° |
| 2026-05-07 18:24 | 60.20575 | 12.95971 | 22804 ft | 474 kts | 81° |
| 2026-05-07 18:24 | 60.20998 | 13.02567 | 23172 ft | 477 kts | 81° |
| 2026-05-07 18:24 | 60.21419 | 13.09199 | 23536 ft | 480 kts | 81° |
| 2026-05-07 18:24 | 60.21842 | 13.15882 | 23849 ft | 483 kts | 81° |
| 2026-05-07 18:25 | 60.22264 | 13.22608 | 24152 ft | 486 kts | 81° |
| 2026-05-07 18:25 | 60.22685 | 13.29376 | 24448 ft | 489 kts | 81° |
| 2026-05-07 18:25 | 60.23103 | 13.36176 | 24737 ft | 491 kts | 81° |
| 2026-05-07 18:25 | 60.23519 | 13.43010 | 25014 ft | 494 kts | 81° |
| 2026-05-07 18:26 | 60.23930 | 13.49797 | 25284 ft | 496 kts | 81° |
| 2026-05-07 18:26 | 60.24343 | 13.56699 | 25568 ft | 498 kts | 81° |
| 2026-05-07 18:26 | 60.24753 | 13.63639 | 25835 ft | 500 kts | 81° |
| 2026-05-07 18:26 | 60.25157 | 13.70612 | 26091 ft | 503 kts | 81° |
| 2026-05-07 18:27 | 60.25561 | 13.77611 | 26348 ft | 505 kts | 81° |
| 2026-05-07 18:27 | 60.25965 | 13.84644 | 26587 ft | 507 kts | 81° |
| 2026-05-07 18:27 | 60.26369 | 13.91706 | 26824 ft | 509 kts | 81° |
| 2026-05-07 18:27 | 60.26768 | 13.98800 | 27051 ft | 511 kts | 81° |
| 2026-05-07 18:28 | 60.27164 | 14.05926 | 27285 ft | 513 kts | 81° |
| 2026-05-07 18:28 | 60.27559 | 14.13080 | 27491 ft | 515 kts | 81° |
| 2026-05-07 18:28 | 60.27953 | 14.20247 | 27776 ft | 515 kts | 81° |
| 2026-05-07 18:28 | 60.28342 | 14.27407 | 28139 ft | 514 kts | 81° |
| 2026-05-07 18:29 | 60.28727 | 14.34574 | 28433 ft | 514 kts | 81° |
| 2026-05-07 18:29 | 60.29106 | 14.41735 | 28728 ft | 514 kts | 81° |
| 2026-05-07 18:29 | 60.29475 | 14.48802 | 29026 ft | 514 kts | 81° |
| 2026-05-07 18:29 | 60.29845 | 14.55974 | 29319 ft | 514 kts | 81° |
| 2026-05-07 18:30 | 60.30211 | 14.63145 | 29648 ft | 514 kts | 81° |
| 2026-05-07 18:30 | 60.30575 | 14.70321 | 29961 ft | 514 kts | 81° |
| 2026-05-07 18:30 | 60.30937 | 14.77496 | 30267 ft | 514 kts | 81° |
| 2026-05-07 18:30 | 60.31297 | 14.84665 | 30520 ft | 514 kts | 81° |
| 2026-05-07 18:31 | 60.31654 | 14.91842 | 30776 ft | 514 kts | 81° |
| 2026-05-07 18:31 | 60.32006 | 14.99017 | 31053 ft | 514 kts | 81° |
| 2026-05-07 18:31 | 60.32352 | 15.06184 | 31318 ft | 513 kts | 81° |
| 2026-05-07 18:31 | 60.32687 | 15.13249 | 31581 ft | 513 kts | 82° |
| 2026-05-07 18:32 | 60.33022 | 15.20420 | 31844 ft | 513 kts | 82° |
| 2026-05-07 18:32 | 60.33355 | 15.27573 | 32107 ft | 512 kts | 82° |
| 2026-05-07 18:32 | 60.33687 | 15.34731 | 32379 ft | 512 kts | 82° |
| 2026-05-07 18:32 | 60.34016 | 15.41891 | 32632 ft | 512 kts | 82° |
| 2026-05-07 18:33 | 60.34337 | 15.49052 | 32897 ft | 512 kts | 82° |
| 2026-05-07 18:33 | 60.34653 | 15.56219 | 33170 ft | 512 kts | 82° |
| 2026-05-07 18:33 | 60.34964 | 15.63380 | 33428 ft | 512 kts | 82° |
| 2026-05-07 18:33 | 60.35272 | 15.70535 | 33722 ft | 511 kts | 82° |
| 2026-05-07 18:34 | 60.35571 | 15.77576 | 34003 ft | 510 kts | 82° |
| 2026-05-07 18:34 | 60.35873 | 15.84717 | 34255 ft | 510 kts | 82° |
| 2026-05-07 18:34 | 60.36170 | 15.91859 | 34495 ft | 509 kts | 82° |
| 2026-05-07 18:34 | 60.36461 | 15.98984 | 34756 ft | 509 kts | 83° |
| 2026-05-07 18:35 | 60.36747 | 16.06098 | 35050 ft | 508 kts | 83° |
| 2026-05-07 18:35 | 60.37032 | 16.13206 | 35258 ft | 508 kts | 83° |
| 2026-05-07 18:35 | 60.37316 | 16.20315 | 35469 ft | 507 kts | 83° |
| 2026-05-07 18:35 | 60.37594 | 16.27413 | 35691 ft | 506 kts | 84° |
| 2026-05-07 18:36 | 60.37865 | 16.34499 | 35896 ft | 506 kts | 84° |
| 2026-05-07 18:36 | 60.38131 | 16.41579 | 36089 ft | 506 kts | 84° |
| 2026-05-07 18:36 | 60.38390 | 16.48574 | 36272 ft | 505 kts | 85° |
| 2026-05-07 18:36 | 60.38650 | 16.55651 | 36461 ft | 505 kts | 85° |
| 2026-05-07 18:37 | 60.38907 | 16.62726 | 36641 ft | 504 kts | 85° |
| 2026-05-07 18:37 | 60.39161 | 16.69796 | 36827 ft | 504 kts | 85° |
| 2026-05-07 18:37 | 60.39410 | 16.76854 | 37005 ft | 503 kts | 85° |
| 2026-05-07 18:37 | 60.39656 | 16.83912 | 37140 ft | 504 kts | 85° |
| 2026-05-07 18:38 | 60.39901 | 16.90992 | 37165 ft | 506 kts | 85° |
| 2026-05-07 18:38 | 60.40371 | 17.05118 | 37163 ft | 507 kts | 86° |
| 2026-05-07 18:39 | 60.40823 | 17.19357 | 37162 ft | 508 kts | 86° |
| 2026-05-07 18:39 | 60.41268 | 17.33611 | 37163 ft | 508 kts | 86° |
| 2026-05-07 18:40 | 60.41698 | 17.47865 | 37161 ft | 508 kts | 86° |
| 2026-05-07 18:40 | 60.42108 | 17.62129 | 37172 ft | 508 kts | 86° |
| 2026-05-07 18:41 | 60.42510 | 17.76316 | 37175 ft | 508 kts | 86° |
| 2026-05-07 18:41 | 60.42896 | 17.90598 | 37170 ft | 509 kts | 86° |
| 2026-05-07 18:42 | 60.43263 | 18.04907 | 37169 ft | 509 kts | 87° |
| 2026-05-07 18:42 | 60.43615 | 18.19229 | 37181 ft | 510 kts | 87° |
| 2026-05-07 18:43 | 60.43955 | 18.33564 | 37184 ft | 509 kts | 87° |
| 2026-05-07 18:43 | 60.44283 | 18.47802 | 37191 ft | 510 kts | 87° |
| 2026-05-07 18:44 | 60.44592 | 18.62144 | 37180 ft | 510 kts | 87° |
| 2026-05-07 18:44 | 60.44880 | 18.76492 | 37188 ft | 510 kts | 87° |
| 2026-05-07 18:45 | 60.45157 | 18.90838 | 37190 ft | 510 kts | 87° |
| 2026-05-07 18:45 | 60.45418 | 19.05187 | 37193 ft | 510 kts | 88° |
| 2026-05-07 18:46 | 60.45660 | 19.19535 | 37193 ft | 510 kts | 88° |
| 2026-05-07 18:46 | 60.45890 | 19.33772 | 37189 ft | 509 kts | 88° |
| 2026-05-07 18:47 | 60.46111 | 19.48099 | 37198 ft | 508 kts | 88° |
| 2026-05-07 18:47 | 60.46312 | 19.62405 | 37199 ft | 508 kts | 88° |
| 2026-05-07 18:48 | 60.46492 | 19.76706 | 37208 ft | 508 kts | 88° |
| 2026-05-07 18:48 | 60.46655 | 19.90907 | 37196 ft | 507 kts | 88° |
| 2026-05-07 18:49 | 60.46814 | 20.05214 | 37196 ft | 508 kts | 88° |
| 2026-05-07 18:49 | 60.46960 | 20.19527 | 37193 ft | 508 kts | 88° |
| 2026-05-07 18:50 | 60.47086 | 20.33849 | 37194 ft | 508 kts | 89° |
| 2026-05-07 18:50 | 60.47189 | 20.48173 | 37195 ft | 508 kts | 89° |
| 2026-05-07 18:51 | 60.47284 | 20.62398 | 37193 ft | 508 kts | 89° |
| 2026-05-07 18:51 | 60.47359 | 20.76716 | 37186 ft | 508 kts | 89° |
| 2026-05-07 18:52 | 60.47415 | 20.91017 | 37196 ft | 507 kts | 90° |
| 2026-05-07 18:52 | 60.47457 | 21.05328 | 37196 ft | 507 kts | 90° |
| 2026-05-07 18:53 | 60.47490 | 21.19629 | 37197 ft | 507 kts | 90° |
| 2026-05-07 18:53 | 60.47506 | 21.33816 | 37194 ft | 507 kts | 90° |
| 2026-05-07 18:54 | 60.47482 | 21.48114 | 36942 ft | 506 kts | 91° |
| 2026-05-07 18:54 | 60.47430 | 21.55244 | 36681 ft | 506 kts | 91° |
| 2026-05-07 18:54 | 60.47366 | 21.62372 | 36463 ft | 506 kts | 91° |
| 2026-05-07 18:54 | 60.47297 | 21.69551 | 36214 ft | 513 kts | 91° |
| 2026-05-07 18:55 | 60.47228 | 21.76822 | 35966 ft | 518 kts | 91° |
| 2026-05-07 18:55 | 60.47162 | 21.84128 | 35365 ft | 521 kts | 91° |
| 2026-05-07 18:55 | 60.47094 | 21.91427 | 34339 ft | 526 kts | 90° |
| 2026-05-07 18:55 | 60.47024 | 21.98763 | 34013 ft | 514 kts | 90° |
| 2026-05-07 18:56 | 60.46953 | 22.05935 | 33547 ft | 506 kts | 90° |
| 2026-05-07 18:56 | 60.46880 | 22.13007 | 32973 ft | 500 kts | 91° |
| 2026-05-07 18:56 | 60.46802 | 22.20041 | 32447 ft | 496 kts | 91° |
| 2026-05-07 18:56 | 60.46719 | 22.26996 | 31889 ft | 492 kts | 91° |
| 2026-05-07 18:57 | 60.46631 | 22.33909 | 31340 ft | 489 kts | 91° |
| 2026-05-07 18:57 | 60.46539 | 22.40777 | 30796 ft | 486 kts | 91° |
| 2026-05-07 18:57 | 60.46445 | 22.47612 | 30259 ft | 484 kts | 91° |
| 2026-05-07 18:57 | 60.46351 | 22.54407 | 29647 ft | 481 kts | 91° |
| 2026-05-07 18:58 | 60.46256 | 22.61072 | 29089 ft | 478 kts | 91° |
| 2026-05-07 18:58 | 60.46159 | 22.67772 | 28548 ft | 474 kts | 91° |
| 2026-05-07 18:58 | 60.46061 | 22.74421 | 28021 ft | 470 kts | 91° |
| 2026-05-07 18:58 | 60.45959 | 22.81010 | 27506 ft | 466 kts | 92° |
| 2026-05-07 18:59 | 60.45851 | 22.87589 | 26773 ft | 468 kts | 92° |
| 2026-05-07 18:59 | 60.45736 | 22.94198 | 26022 ft | 470 kts | 92° |
| 2026-05-07 18:59 | 60.45621 | 23.00757 | 25285 ft | 461 kts | 92° |
| 2026-05-07 18:59 | 60.45506 | 23.07143 | 24889 ft | 444 kts | 92° |
| 2026-05-07 19:00 | 60.45391 | 23.13251 | 24618 ft | 426 kts | 93° |
| 2026-05-07 19:00 | 60.45275 | 23.19206 | 24258 ft | 421 kts | 93° |
| 2026-05-07 19:00 | 60.45162 | 23.25089 | 23785 ft | 416 kts | 93° |
| 2026-05-07 19:00 | 60.45049 | 23.30922 | 23228 ft | 413 kts | 93° |
| 2026-05-07 19:01 | 60.44936 | 23.36666 | 22670 ft | 412 kts | 93° |
| 2026-05-07 19:01 | 60.44823 | 23.42422 | 21961 ft | 406 kts | 92° |
| 2026-05-07 19:01 | 60.44708 | 23.48102 | 21266 ft | 400 kts | 92° |
| 2026-05-07 19:01 | 60.44590 | 23.53694 | 20620 ft | 395 kts | 92° |
| 2026-05-07 19:02 | 60.44467 | 23.59226 | 19956 ft | 390 kts | 92° |
| 2026-05-07 19:02 | 60.44344 | 23.64681 | 19305 ft | 386 kts | 92° |
| 2026-05-07 19:02 | 60.44222 | 23.70084 | 18669 ft | 382 kts | 92° |
| 2026-05-07 19:02 | 60.44098 | 23.75415 | 17983 ft | 377 kts | 92° |
| 2026-05-07 19:03 | 60.43972 | 23.80699 | 17264 ft | 373 kts | 92° |
| 2026-05-07 19:03 | 60.43849 | 23.85847 | 16566 ft | 369 kts | 91° |
| 2026-05-07 19:03 | 60.43988 | 23.90994 | 15883 ft | 364 kts | 81° |
| 2026-05-07 19:03 | 60.44284 | 23.96049 | 15213 ft | 360 kts | 81° |
| 2026-05-07 19:04 | 60.44576 | 24.01055 | 14555 ft | 356 kts | 81° |
| 2026-05-07 19:04 | 60.44862 | 24.06005 | 13930 ft | 351 kts | 81° |
| 2026-05-07 19:04 | 60.45133 | 24.10758 | 13868 ft | 328 kts | 81° |
| 2026-05-07 19:04 | 60.45382 | 24.15206 | 13830 ft | 309 kts | 81° |
| 2026-05-07 19:05 | 60.45624 | 24.19516 | 13348 ft | 308 kts | 81° |
| 2026-05-07 19:05 | 60.45869 | 24.23803 | 12789 ft | 305 kts | 81° |
| 2026-05-07 19:05 | 60.46112 | 24.28052 | 12225 ft | 302 kts | 81° |
| 2026-05-07 19:05 | 60.46350 | 24.32262 | 11662 ft | 299 kts | 82° |
| 2026-05-07 19:06 | 60.46582 | 24.36422 | 11120 ft | 295 kts | 83° |
| 2026-05-07 19:06 | 60.45546 | 24.44037 | 10073 ft | 284 kts | 127° |
| 2026-05-07 19:06 | 60.44349 | 24.47175 | 9504 ft | 280 kts | 130° |
| 2026-05-07 19:07 | 60.43130 | 24.50198 | 9005 ft | 273 kts | 130° |
| 2026-05-07 19:07 | 60.41936 | 24.53117 | 8493 ft | 267 kts | 130° |
| 2026-05-07 19:07 | 60.40751 | 24.55980 | 7957 ft | 264 kts | 130° |
| 2026-05-07 19:07 | 60.39572 | 24.58796 | 7418 ft | 261 kts | 130° |
| 2026-05-07 19:08 | 60.38447 | 24.61635 | 6889 ft | 257 kts | 119° |
| 2026-05-07 19:08 | 60.37972 | 24.65000 | 6484 ft | 245 kts | 86° |
| 2026-05-07 19:08 | 60.38407 | 24.68201 | 6159 ft | 235 kts | 54° |
| 2026-05-07 19:08 | 60.39467 | 24.70674 | 5847 ft | 232 kts | 42° |
| 2026-05-07 19:09 | 60.40627 | 24.72859 | 5540 ft | 230 kts | 36° |
| 2026-05-07 19:09 | 60.41995 | 24.74441 | 5135 ft | 226 kts | 22° |
| 2026-05-07 19:09 | 60.43429 | 24.75689 | 4689 ft | 223 kts | 21° |
| 2026-05-07 19:09 | 60.44854 | 24.76888 | 4239 ft | 221 kts | 20° |
| 2026-05-07 19:10 | 60.46260 | 24.78106 | 3795 ft | 219 kts | 25° |
| 2026-05-07 19:10 | 60.47328 | 24.80233 | 3351 ft | 220 kts | 65° |
| 2026-05-07 19:10 | 60.47369 | 24.83199 | 3242 ft | 213 kts | 109° |
| 2026-05-07 19:10 | 60.46406 | 24.85361 | 3042 ft | 209 kts | 155° |
| 2026-05-07 19:11 | 60.45008 | 24.85658 | 2793 ft | 201 kts | 188° |
| 2026-05-07 19:11 | 60.43651 | 24.85768 | 2539 ft | 191 kts | 160° |
| 2026-05-07 19:11 | 60.42478 | 24.86786 | 2302 ft | 181 kts | 154° |
| 2026-05-07 19:11 | 60.41369 | 24.87879 | 2065 ft | 173 kts | 153° |
| 2026-05-07 19:12 | 60.40316 | 24.88951 | 1828 ft | 165 kts | 153° |
| 2026-05-07 19:12 | 60.39315 | 24.89979 | 1611 ft | 159 kts | 153° |
| 2026-05-07 19:12 | 60.38343 | 24.90979 | 1425 ft | 154 kts | 153° |
| 2026-05-07 19:12 | 60.37398 | 24.91952 | 1190 ft | 151 kts | 153° |
| 2026-05-07 19:13 | 60.36472 | 24.92905 | 980 ft | 147 kts | 154° |
| 2026-05-07 19:13 | 60.35572 | 24.93831 | 780 ft | 143 kts | 155° |
| 2026-05-07 19:13 | 60.34709 | 24.94719 | 590 ft | 140 kts | 155° |
| 2026-05-07 19:13 | 60.33850 | 24.95604 | 401 ft | 138 kts | 155° |
| 2026-05-07 19:14 | 60.33001 | 24.96500 | 219 ft | 138 kts | 154° |
| 2026-05-07 19:14 | 60.32224 | 24.97306 | 156 ft | 101 kts | 155° |
| 2026-05-07 19:14 | 60.31711 | 24.97803 | 152 ft | 62 kts | 154° |
| 2026-05-07 19:14 | 60.31478 | 24.98015 | 154 ft | 12 kts | 187° |
| 2026-05-07 19:15 | 60.31423 | 24.97910 | 155 ft | 11 kts | 240° |
| 2026-05-07 19:15 | 60.31408 | 24.97855 | 155 ft | 0 kts | 242° |
| 2026-05-07 19:16 | 60.31406 | 24.97848 | 155 ft | 4 kts | 242° |
| 2026-05-07 19:16 | 60.31381 | 24.97721 | 157 ft | 10 kts | 267° |
| 2026-05-07 19:17 | 60.31413 | 24.97625 | 159 ft | 9 kts | 322° |
| 2026-05-07 19:17 | 60.31488 | 24.97536 | 160 ft | 13 kts | 330° |
| 2026-05-07 19:17 | 60.31581 | 24.97440 | 164 ft | 15 kts | 334° |
| 2026-05-07 19:17 | 60.31667 | 24.97357 | 166 ft | 12 kts | 334° |
| 2026-05-07 19:18 | 60.31739 | 24.97284 | 166 ft | 11 kts | 333° |
| 2026-05-07 19:18 | 60.31796 | 24.97215 | 166 ft | 8 kts | 308° |
| 2026-05-07 19:18 | 60.31798 | 24.97130 | 166 ft | 3 kts | 244° |
| 2026-05-07 19:18 | 60.31790 | 24.97096 | 166 ft | 2 kts | 245° |
| 2026-05-07 19:19 | 60.31785 | 24.97078 | 166 ft | 0 kts | 243° |